createdAt,value
2017-12-19T00:01:01.100Z,28.52
2017-12-19T00:03:29.923Z,28.12
2017-12-19T00:05:58.015Z,32.33
2017-12-19T00:08:26.075Z,29.67
2017-12-19T00:10:54.990Z,33.13
2017-12-19T00:13:23.406Z,33.70
2017-12-19T00:15:51.720Z,34.80
2017-12-19T00:18:20.827Z,29.48
2017-12-19T00:20:50.020Z,28.48
2017-12-19T00:23:18.323Z,33.75
2017-12-19T00:25:47.440Z,31.17
2017-12-19T00:28:15.807Z,28.87
2017-12-19T00:30:44.107Z,30.92
2017-12-19T00:33:13.179Z,31.17
2017-12-19T00:35:41.518Z,26.50
2017-12-19T00:38:09.878Z,28.27
2017-12-19T00:40:38.211Z,32.28
2017-12-19T00:43:06.507Z,30.88
2017-12-19T00:45:34.810Z,29.75
2017-12-19T00:48:03.155Z,31.80
2017-12-19T00:50:32.275Z,31.75
2017-12-19T00:53:01.384Z,30.95
2017-12-19T00:55:30.494Z,30.90
2017-12-19T00:57:58.799Z,38.00
2017-12-19T01:00:27.098Z,30.85
2017-12-19T01:02:55.459Z,27.27
2017-12-19T01:05:24.630Z,32.28
2017-12-19T01:07:52.923Z,29.95
2017-12-19T01:10:21.258Z,30.30
2017-12-19T01:12:49.612Z,31.95
2017-12-19T01:15:17.910Z,35.13
2017-12-19T01:17:47.027Z,31.10
2017-12-19T01:20:16.090Z,29.73
2017-12-19T01:22:44.431Z,35.35
2017-12-19T01:25:12.727Z,34.47
2017-12-19T01:27:41.063Z,29.40
2017-12-19T01:30:10.135Z,30.98
2017-12-19T01:32:38.500Z,37.63
2017-12-19T01:35:07.771Z,35.05
2017-12-19T01:37:36.071Z,36.22
2017-12-19T01:40:04.419Z,34.20
2017-12-19T01:42:32.915Z,32.10
2017-12-19T01:45:02.723Z,36.45
2017-12-19T01:47:31.027Z,29.00
2017-12-19T01:50:00.651Z,33.60
2017-12-19T01:52:29.008Z,33.05
2017-12-19T01:54:57.355Z,37.53
2017-12-19T01:57:25.690Z,27.13
2017-12-19T01:59:54.008Z,35.05
2017-12-19T02:02:23.135Z,44.35
2017-12-19T02:04:52.431Z,33.47
2017-12-19T02:07:20.735Z,31.75
2017-12-19T02:09:49.811Z,33.05
2017-12-19T02:12:18.214Z,34.30
2017-12-19T02:14:46.529Z,35.28
2017-12-19T02:17:14.998Z,33.20
2017-12-19T02:19:43.387Z,33.20
2017-12-19T02:22:11.871Z,34.42
2017-12-19T02:24:40.247Z,28.80
2017-12-19T02:27:08.711Z,36.30
2017-12-19T02:29:37.014Z,30.05
2017-12-19T02:32:05.318Z,39.50
2017-12-19T02:34:33.650Z,27.13
2017-12-19T02:37:02.771Z,32.22
2017-12-19T02:39:31.118Z,33.10
2017-12-19T02:42:00.203Z,26.90
2017-12-19T02:44:28.547Z,27.27
2017-12-19T02:46:57.641Z,31.85
2017-12-19T02:49:27.155Z,31.10
2017-12-19T02:51:55.466Z,30.15
2017-12-19T02:54:23.778Z,35.47
2017-12-19T02:56:52.146Z,26.87
2017-12-19T02:59:21.212Z,32.60
2017-12-19T03:01:49.519Z,27.62
2017-12-19T03:04:17.976Z,29.33
2017-12-19T03:06:46.278Z,31.23
2017-12-19T03:09:14.735Z,33.03
2017-12-19T03:11:43.107Z,29.05
2017-12-19T03:14:12.180Z,29.85
2017-12-19T03:16:40.524Z,29.02
2017-12-19T03:19:09.074Z,29.37
2017-12-19T03:21:37.385Z,30.48
2017-12-19T03:24:06.451Z,33.33
2017-12-19T03:26:34.792Z,37.00
2017-12-19T03:29:03.151Z,29.50
2017-12-19T03:31:31.456Z,28.60
2017-12-19T03:34:00.571Z,32.55
2017-12-19T03:36:29.680Z,29.63
2017-12-19T03:38:58.876Z,31.75
2017-12-19T03:41:27.220Z,33.30
2017-12-19T03:43:55.558Z,30.50
2017-12-19T03:46:24.662Z,31.30
2017-12-19T03:48:54.718Z,28.50
2017-12-19T03:51:23.063Z,30.80
2017-12-19T03:53:51.355Z,33.03
2017-12-19T03:56:20.478Z,33.83
2017-12-19T03:58:49.547Z,29.98
2017-12-19T04:01:17.883Z,30.35
2017-12-19T04:03:46.951Z,28.90
2017-12-19T04:06:15.316Z,33.38
2017-12-19T04:08:43.615Z,34.58
2017-12-19T04:11:12.035Z,29.27
2017-12-19T04:13:40.432Z,27.92
2017-12-19T04:16:08.774Z,30.37
2017-12-19T04:18:37.106Z,30.92
2017-12-19T04:21:05.434Z,32.38
2017-12-19T04:23:34.499Z,29.33
2017-12-19T04:26:02.851Z,31.40
2017-12-19T04:28:31.146Z,33.00
2017-12-19T04:30:59.442Z,33.25
2017-12-19T04:33:27.771Z,30.08
2017-12-19T04:35:57.576Z,28.42
2017-12-19T04:38:25.939Z,31.65
2017-12-19T04:40:54.247Z,29.20
2017-12-19T04:43:22.538Z,27.62
2017-12-19T04:45:50.946Z,35.40
2017-12-19T04:48:19.243Z,28.40
2017-12-19T04:50:48.932Z,28.08
2017-12-19T04:53:17.276Z,34.42
2017-12-19T04:55:46.467Z,31.58
2017-12-19T04:58:15.587Z,28.85
2017-12-19T05:00:44.651Z,30.70
2017-12-19T05:03:13.004Z,31.12
2017-12-19T05:05:41.304Z,33.47
2017-12-19T05:08:09.611Z,31.95
2017-12-19T05:10:37.947Z,27.65
2017-12-19T05:13:06.239Z,23.95
2017-12-19T05:15:34.588Z,28.30
2017-12-19T05:18:02.879Z,30.62
2017-12-19T05:20:31.375Z,29.90
2017-12-19T05:22:59.671Z,32.22
2017-12-19T05:25:28.017Z,26.08
2017-12-19T05:27:57.215Z,26.90
2017-12-19T05:30:26.274Z,25.92
2017-12-19T05:32:54.575Z,33.80
2017-12-19T05:35:22.911Z,27.77
2017-12-19T05:37:51.976Z,28.17
2017-12-19T05:40:20.322Z,26.55
2017-12-19T05:42:48.771Z,29.85
2017-12-19T05:45:17.067Z,29.63
2017-12-19T05:47:45.366Z,34.35
2017-12-19T05:50:14.466Z,34.83
2017-12-19T05:52:43.602Z,27.27
2017-12-19T05:55:11.891Z,30.83
2017-12-19T05:57:40.186Z,40.12
2017-12-19T06:00:08.526Z,55.17
2017-12-19T06:02:36.825Z,50.58
2017-12-19T06:05:05.119Z,39.60
2017-12-19T06:07:33.458Z,38.25
2017-12-19T06:10:01.751Z,53.05
2017-12-19T06:12:30.083Z,47.58
2017-12-19T06:14:58.422Z,55.05
2017-12-19T06:17:26.715Z,40.72
2017-12-19T06:19:55.010Z,27.75
2017-12-19T06:22:23.355Z,28.55
2017-12-19T06:24:52.418Z,27.65
2017-12-19T06:27:20.719Z,30.02
2017-12-19T06:29:49.047Z,31.37
2017-12-19T06:32:18.123Z,34.75
2017-12-19T06:34:46.472Z,38.67
2017-12-19T06:37:14.818Z,29.85
2017-12-19T06:39:43.163Z,29.00
2017-12-19T06:42:11.514Z,30.10
2017-12-19T06:44:39.775Z,27.00
2017-12-19T06:47:08.139Z,30.42
2017-12-19T06:49:36.445Z,30.85
2017-12-19T06:52:04.734Z,22.98
2017-12-19T06:54:33.191Z,30.98
2017-12-19T06:57:01.488Z,35.55
2017-12-19T06:59:29.791Z,40.08
2017-12-19T07:01:59.547Z,33.60
2017-12-19T07:04:29.346Z,39.28
2017-12-19T07:06:57.643Z,28.83
2017-12-19T07:09:26.213Z,35.38
2017-12-19T07:11:55.234Z,32.20
2017-12-19T07:14:23.674Z,27.58
2017-12-19T07:16:52.770Z,30.45
2017-12-19T07:19:21.063Z,33.67
2017-12-19T07:21:50.167Z,32.85
2017-12-19T07:24:19.283Z,33.03
2017-12-19T07:26:48.347Z,30.50
2017-12-19T07:29:16.686Z,34.65
2017-12-19T07:31:45.751Z,26.62
2017-12-19T07:34:14.103Z,28.92
2017-12-19T07:36:42.399Z,28.35
2017-12-19T07:39:10.696Z,31.08
2017-12-19T07:41:39.035Z,26.77
2017-12-19T07:44:07.332Z,33.63
2017-12-19T07:46:35.674Z,34.47
2017-12-19T07:49:03.971Z,39.20
2017-12-19T07:51:32.315Z,32.15
2017-12-19T07:54:01.408Z,31.90
2017-12-19T07:56:30.506Z,29.77
2017-12-19T07:58:58.815Z,32.38
2017-12-19T08:01:27.920Z,29.73
2017-12-19T08:03:57.019Z,29.07
2017-12-19T08:06:25.368Z,30.20
2017-12-19T08:08:53.667Z,27.77
2017-12-19T08:11:22.010Z,35.80
2017-12-19T08:13:50.375Z,29.63
2017-12-19T08:16:18.703Z,36.70
2017-12-19T08:18:47.011Z,29.48
2017-12-19T08:21:15.348Z,35.63
2017-12-19T08:23:44.455Z,35.37
2017-12-19T08:26:12.749Z,38.90
2017-12-19T08:28:41.931Z,32.28
2017-12-19T08:31:10.222Z,34.35
2017-12-19T08:33:38.571Z,29.75
2017-12-19T08:36:06.870Z,31.83
2017-12-19T08:38:35.211Z,34.67
2017-12-19T08:41:03.747Z,29.17
2017-12-19T08:43:32.192Z,28.62
2017-12-19T08:46:00.492Z,34.97
2017-12-19T08:48:28.790Z,32.93
2017-12-19T08:50:57.882Z,35.90
2017-12-19T08:53:26.226Z,35.42
2017-12-19T08:55:54.784Z,33.35
2017-12-19T08:58:23.095Z,36.58
2017-12-19T09:00:51.386Z,32.33
2017-12-19T09:03:19.860Z,31.93
2017-12-19T09:05:48.179Z,40.38
2017-12-19T09:08:16.624Z,33.20
2017-12-19T09:10:44.922Z,34.67
2017-12-19T09:13:13.987Z,31.73
2017-12-19T09:15:42.327Z,34.47
2017-12-19T09:18:11.423Z,37.07
2017-12-19T09:20:40.486Z,37.08
2017-12-19T09:23:08.816Z,37.23
2017-12-19T09:25:37.103Z,40.47
2017-12-19T09:28:05.445Z,35.30
2017-12-19T09:30:33.740Z,34.80
2017-12-19T09:33:02.079Z,38.20
2017-12-19T09:35:30.376Z,32.33
2017-12-19T09:37:59.483Z,34.83
2017-12-19T09:40:28.542Z,33.00
2017-12-19T09:42:57.049Z,39.27
2017-12-19T09:45:26.378Z,31.90
2017-12-19T09:47:54.671Z,38.37
2017-12-19T09:50:23.169Z,34.13
2017-12-19T09:52:51.555Z,39.17
2017-12-19T09:55:21.351Z,40.30
2017-12-19T09:57:49.690Z,36.50
2017-12-19T10:00:18.795Z,40.05
2017-12-19T10:02:47.907Z,39.45
2017-12-19T10:05:16.966Z,33.03
2017-12-19T10:07:45.390Z,35.85
2017-12-19T10:10:13.680Z,44.20
2017-12-19T10:12:42.011Z,37.60
2017-12-19T10:15:10.315Z,40.17
2017-12-19T10:17:38.657Z,43.25
2017-12-19T10:20:07.720Z,39.00
2017-12-19T10:22:36.059Z,42.60
2017-12-19T10:25:04.370Z,33.43
2017-12-19T10:27:32.659Z,39.17
2017-12-19T10:30:00.999Z,54.23
2017-12-19T10:32:29.290Z,39.90
2017-12-19T10:34:57.642Z,51.50
2017-12-19T10:37:25.970Z,37.80
2017-12-19T10:39:54.303Z,49.30
2017-12-19T10:42:22.631Z,40.93
2017-12-19T10:44:51.014Z,41.50
2017-12-19T10:47:20.071Z,40.40
2017-12-19T10:49:49.130Z,41.70
2017-12-19T10:52:17.504Z,46.53
2017-12-19T10:54:45.801Z,46.90
2017-12-19T10:57:14.147Z,41.47
2017-12-19T10:59:43.331Z,43.60
2017-12-19T11:02:11.845Z,42.37
2017-12-19T11:04:40.345Z,40.60
2017-12-19T11:07:09.536Z,39.55
2017-12-19T11:09:38.633Z,37.05
2017-12-19T11:12:06.998Z,39.28
2017-12-19T11:14:35.328Z,34.93
2017-12-19T11:17:03.620Z,51.93
2017-12-19T11:19:31.912Z,35.13
2017-12-19T11:22:00.248Z,44.27
2017-12-19T11:24:28.540Z,40.80
2017-12-19T11:26:56.876Z,33.10
2017-12-19T11:29:26.773Z,40.43
2017-12-19T11:31:55.055Z,39.70
2017-12-19T11:34:23.403Z,46.03
2017-12-19T11:36:52.516Z,44.40
2017-12-19T11:39:21.911Z,43.37
2017-12-19T11:41:50.207Z,43.33
2017-12-19T11:44:18.494Z,42.77
2017-12-19T11:46:46.832Z,41.63
2017-12-19T11:49:15.130Z,38.75
2017-12-19T11:51:43.466Z,41.67
2017-12-19T11:54:12.527Z,40.33
2017-12-19T11:56:40.866Z,41.37
2017-12-19T11:59:09.980Z,35.10
2017-12-19T12:01:39.093Z,36.67
2017-12-19T12:04:08.192Z,34.53
2017-12-19T12:06:37.292Z,38.05
2017-12-19T12:09:05.639Z,36.97
2017-12-19T12:11:34.071Z,30.90
2017-12-19T12:14:02.368Z,37.07
2017-12-19T12:16:31.427Z,32.77
2017-12-19T12:18:59.755Z,38.70
2017-12-19T12:21:28.086Z,35.57
2017-12-19T12:23:56.388Z,33.00
2017-12-19T12:26:24.726Z,34.90
2017-12-19T12:28:53.080Z,34.27
2017-12-19T12:31:21.602Z,33.17
2017-12-19T12:33:49.919Z,36.13
2017-12-19T12:36:18.983Z,34.87
2017-12-19T12:38:47.315Z,34.90
2017-12-19T12:41:16.402Z,38.70
2017-12-19T12:43:44.691Z,35.27
2017-12-19T12:46:13.023Z,37.30
2017-12-19T12:48:41.387Z,32.90
2017-12-19T12:51:09.704Z,34.53
2017-12-19T12:53:38.000Z,33.90
2017-12-19T12:56:06.326Z,26.10
2017-12-19T12:58:34.626Z,31.70
2017-12-19T13:01:02.947Z,30.77
2017-12-19T13:03:32.023Z,26.30
2017-12-19T13:06:00.411Z,32.10
2017-12-19T13:08:28.716Z,29.60
2017-12-19T13:10:57.775Z,37.50
2017-12-19T13:13:26.108Z,32.53
2017-12-19T13:15:54.903Z,35.97
2017-12-19T13:18:23.199Z,30.07
2017-12-19T13:20:52.268Z,30.55
2017-12-19T13:23:20.621Z,34.43
2017-12-19T13:25:48.914Z,35.50
2017-12-19T13:28:18.215Z,36.85
2017-12-19T13:30:46.567Z,34.33
2017-12-19T13:33:15.012Z,29.10
2017-12-19T13:35:43.302Z,28.93
2017-12-19T13:38:11.596Z,32.83
2017-12-19T13:40:39.948Z,24.77
2017-12-19T13:43:09.051Z,26.33
2017-12-19T13:45:38.863Z,33.83
2017-12-19T13:48:07.231Z,34.22
2017-12-19T13:50:35.520Z,34.33
2017-12-19T13:53:03.810Z,30.87
2017-12-19T13:55:32.143Z,29.70
2017-12-19T13:58:00.479Z,34.50
2017-12-19T14:00:28.920Z,31.10
2017-12-19T14:02:57.218Z,33.90
2017-12-19T14:05:26.419Z,28.47
2017-12-19T14:07:54.803Z,37.53
2017-12-19T14:10:23.107Z,38.23
2017-12-19T14:12:52.211Z,31.80
2017-12-19T14:15:20.591Z,23.92
2017-12-19T14:17:48.987Z,31.77
2017-12-19T14:20:17.283Z,25.97
2017-12-19T14:22:46.391Z,34.40
2017-12-19T14:25:14.687Z,31.30
2017-12-19T14:27:43.784Z,31.60
2017-12-19T14:30:13.651Z,25.27
2017-12-19T14:32:41.943Z,33.50
2017-12-19T14:35:10.288Z,32.53
2017-12-19T14:37:38.575Z,32.07
2017-12-19T14:40:06.907Z,26.87
2017-12-19T14:42:36.106Z,32.03
2017-12-19T14:45:05.204Z,33.10
2017-12-19T14:47:34.259Z,36.37
2017-12-19T14:50:02.603Z,35.60
2017-12-19T14:52:31.786Z,29.70
2017-12-19T14:55:00.082Z,31.03
2017-12-19T14:57:28.415Z,36.83
2017-12-19T14:59:56.750Z,31.47
2017-12-19T15:02:25.087Z,30.90
2017-12-19T15:04:53.467Z,31.73
2017-12-19T15:07:22.551Z,33.33
2017-12-19T15:09:50.852Z,31.13
2017-12-19T15:12:19.174Z,32.73
2017-12-19T15:14:47.506Z,32.90
2017-12-19T15:17:15.828Z,31.60
2017-12-19T15:19:44.924Z,32.97
2017-12-19T15:22:13.259Z,32.20
2017-12-19T15:24:41.624Z,31.17
2017-12-19T15:27:10.687Z,32.17
2017-12-19T15:29:38.995Z,32.90
2017-12-19T15:32:07.326Z,38.87
2017-12-19T15:34:35.668Z,39.47
2017-12-19T15:37:05.512Z,38.27
2017-12-19T15:39:33.843Z,33.97
2017-12-19T15:42:02.178Z,35.10
2017-12-19T15:44:30.475Z,44.17
2017-12-19T15:46:58.807Z,33.07
2017-12-19T15:49:27.131Z,34.40
2017-12-19T15:51:55.459Z,34.43
2017-12-19T15:54:24.559Z,31.53
2017-12-19T15:56:53.626Z,27.13
2017-12-19T15:59:21.954Z,36.30
2017-12-19T16:01:50.271Z,28.30
2017-12-19T16:04:18.599Z,30.93
2017-12-19T16:06:46.910Z,33.45
2017-12-19T16:09:15.238Z,29.20
2017-12-19T16:11:43.572Z,29.23
2017-12-19T16:14:11.953Z,31.53
2017-12-19T16:16:40.274Z,37.87
2017-12-19T16:19:08.608Z,23.37
2017-12-19T16:21:36.904Z,32.00
2017-12-19T16:24:05.235Z,32.73
2017-12-19T16:26:33.570Z,31.63
2017-12-19T16:29:02.220Z,32.78
2017-12-19T16:31:31.509Z,27.73
2017-12-19T16:33:59.847Z,27.17
2017-12-19T16:36:28.907Z,27.57
2017-12-19T16:38:57.204Z,25.97
2017-12-19T16:41:25.543Z,29.73
2017-12-19T16:43:54.651Z,24.83
2017-12-19T16:46:23.755Z,27.47
2017-12-19T16:48:52.098Z,29.83
2017-12-19T16:51:20.398Z,23.53
2017-12-19T16:53:48.804Z,24.80
2017-12-19T16:56:18.603Z,25.70
2017-12-19T16:58:46.928Z,21.80
2017-12-19T17:01:15.219Z,26.60
2017-12-19T17:03:43.563Z,26.83
2017-12-19T17:06:11.864Z,24.95
2017-12-19T17:08:40.275Z,26.33
2017-12-19T17:11:08.572Z,27.23
2017-12-19T17:13:36.859Z,26.23
2017-12-19T17:16:05.199Z,29.43
2017-12-19T17:18:33.507Z,24.40
2017-12-19T17:21:01.844Z,25.33
2017-12-19T17:23:30.947Z,18.90
2017-12-19T17:26:00.003Z,26.43
2017-12-19T17:28:28.357Z,20.85
2017-12-19T17:30:57.463Z,19.27
2017-12-19T17:33:26.573Z,23.62
2017-12-19T17:35:55.667Z,22.87
2017-12-19T17:38:24.719Z,29.70
2017-12-19T17:40:53.086Z,21.37
2017-12-19T17:43:21.562Z,27.53
2017-12-19T17:45:50.618Z,22.70
2017-12-19T17:48:18.913Z,37.20
2017-12-19T17:50:47.255Z,29.25
2017-12-19T17:53:16.306Z,24.70
2017-12-19T17:55:44.644Z,24.87
2017-12-19T17:58:13.835Z,47.50
2017-12-19T18:00:42.123Z,27.57
2017-12-19T18:03:10.519Z,42.60
2017-12-19T18:05:38.851Z,40.43
2017-12-19T18:08:07.186Z,51.67
2017-12-19T18:10:35.478Z,116.17
2017-12-19T18:13:03.823Z,55.00
2017-12-19T18:15:32.155Z,40.83
2017-12-19T18:18:00.443Z,35.10
2017-12-19T18:20:28.774Z,47.13
2017-12-19T18:22:57.079Z,55.07
2017-12-19T18:25:25.441Z,54.47
2017-12-19T18:27:54.508Z,56.90
2017-12-19T18:30:22.847Z,61.05
2017-12-19T18:32:51.954Z,52.97
2017-12-19T18:35:22.370Z,83.90
2017-12-19T18:37:50.665Z,24.73
2017-12-19T18:40:18.956Z,56.10
2017-12-19T18:42:47.299Z,98.83
2017-12-19T18:45:15.740Z,73.50
2017-12-19T18:47:44.027Z,68.60
2017-12-19T18:50:13.819Z,43.30
2017-12-19T18:52:42.150Z,33.83
2017-12-19T18:55:11.339Z,41.63
2017-12-19T18:57:39.699Z,53.63
2017-12-19T19:00:08.003Z,85.63
2017-12-19T19:02:36.296Z,65.57
2017-12-19T19:05:04.683Z,101.67
2017-12-19T19:07:32.971Z,58.30
2017-12-19T19:10:01.267Z,48.83
2017-12-19T19:12:29.603Z,37.13
2017-12-19T19:14:57.934Z,52.50
2017-12-19T19:17:26.226Z,71.80
2017-12-19T19:19:54.563Z,39.30
2017-12-19T19:22:23.618Z,91.63
2017-12-19T19:24:51.922Z,95.40
2017-12-19T19:27:20.269Z,54.63
2017-12-19T19:29:48.557Z,57.80
2017-12-19T19:32:16.908Z,41.47
2017-12-19T19:34:45.195Z,41.30
2017-12-19T19:37:15.416Z,39.43
2017-12-19T19:39:43.759Z,47.55
2017-12-19T19:42:12.179Z,35.80
2017-12-19T19:44:42.624Z,53.50
2017-12-19T19:47:11.715Z,28.80
2017-12-19T19:49:40.003Z,41.47
2017-12-19T19:52:08.351Z,44.53
2017-12-19T19:54:36.639Z,63.83
2017-12-19T19:57:05.745Z,35.37
2017-12-19T19:59:35.534Z,38.30
2017-12-19T20:02:03.956Z,42.67
2017-12-19T20:04:32.279Z,35.87
2017-12-19T20:07:00.626Z,25.42
2017-12-19T20:09:28.968Z,28.87
2017-12-19T20:11:57.295Z,30.57
2017-12-19T20:14:25.806Z,38.88
2017-12-19T20:16:54.127Z,32.67
2017-12-19T20:19:22.444Z,32.80
2017-12-19T20:21:50.766Z,33.27
2017-12-19T20:24:19.080Z,37.95
2017-12-19T20:26:47.407Z,29.77
2017-12-19T20:29:15.759Z,31.63
2017-12-19T20:31:44.240Z,26.80
2017-12-19T20:34:12.531Z,21.13
2017-12-19T20:36:40.915Z,30.13
2017-12-19T20:39:09.207Z,27.53
2017-12-19T20:41:39.038Z,29.60
2017-12-19T20:44:07.326Z,32.00
2017-12-19T20:46:35.707Z,26.70
2017-12-19T20:49:05.498Z,23.30
2017-12-19T20:51:33.787Z,21.97
2017-12-19T20:54:02.114Z,19.63
2017-12-19T20:56:30.442Z,26.97
2017-12-19T20:58:58.730Z,24.67
2017-12-19T21:01:27.066Z,25.30
2017-12-19T21:03:55.644Z,19.40
2017-12-19T21:06:23.983Z,23.90
2017-12-19T21:08:52.268Z,20.30
2017-12-19T21:11:21.375Z,19.17
2017-12-19T21:13:49.699Z,23.53
2017-12-19T21:16:18.042Z,23.58
2017-12-19T21:18:46.431Z,30.10
2017-12-19T21:21:14.769Z,24.03
2017-12-19T21:23:43.056Z,26.73
2017-12-19T21:26:11.403Z,24.90
2017-12-19T21:28:39.732Z,23.00
2017-12-19T21:31:08.066Z,24.70
2017-12-19T21:33:36.355Z,21.17
2017-12-19T21:36:04.704Z,24.55
2017-12-19T21:38:33.051Z,28.97
2017-12-19T21:41:01.382Z,20.08
2017-12-19T21:43:29.740Z,23.77
2017-12-19T21:45:58.926Z,21.93
2017-12-19T21:48:27.199Z,18.80
2017-12-19T21:50:55.530Z,19.10
2017-12-19T21:53:23.829Z,21.30
2017-12-19T21:55:53.119Z,21.70
2017-12-19T21:58:21.403Z,17.10
2017-12-19T22:00:49.687Z,16.17
2017-12-19T22:03:18.011Z,21.73
2017-12-19T22:05:46.347Z,22.60
2017-12-19T22:08:14.635Z,15.40
2017-12-19T22:10:42.946Z,16.10
2017-12-19T22:13:11.647Z,15.93
2017-12-19T22:15:39.931Z,22.67
2017-12-19T22:18:08.339Z,18.70
2017-12-19T22:20:36.659Z,17.23
2017-12-19T22:23:05.122Z,19.67
2017-12-19T22:25:35.243Z,19.83
2017-12-19T22:28:03.532Z,18.30
2017-12-19T22:30:31.814Z,15.40
2017-12-19T22:33:00.157Z,19.40
2017-12-19T22:35:28.451Z,19.65
2017-12-19T22:37:56.747Z,16.55
2017-12-19T22:40:25.078Z,20.57
2017-12-19T22:42:53.370Z,16.80
2017-12-19T22:45:21.715Z,14.02
2017-12-19T22:47:50.007Z,20.27
2017-12-19T22:50:18.334Z,18.02
2017-12-19T22:52:46.707Z,15.50
2017-12-19T22:55:14.991Z,14.97
2017-12-19T22:57:43.284Z,19.03
2017-12-19T23:00:11.620Z,17.30
2017-12-19T23:02:40.707Z,15.20
2017-12-19T23:05:10.427Z,17.43
2017-12-19T23:07:38.908Z,17.93
2017-12-19T23:10:07.191Z,16.03
2017-12-19T23:12:35.522Z,17.77
2017-12-19T23:15:04.607Z,13.03
2017-12-19T23:17:32.910Z,12.00
2017-12-19T23:20:02.401Z,15.88
2017-12-19T23:22:30.755Z,18.13
2017-12-19T23:24:59.240Z,17.30
2017-12-19T23:27:27.745Z,18.83
2017-12-19T23:29:56.027Z,14.63
2017-12-19T23:32:24.566Z,18.98
2017-12-19T23:34:52.883Z,18.07
2017-12-19T23:37:21.931Z,17.17
2017-12-19T23:39:50.261Z,11.60
2017-12-19T23:42:18.647Z,13.63
2017-12-19T23:44:46.978Z,17.83
2017-12-19T23:47:15.271Z,19.83
2017-12-19T23:49:43.767Z,24.07
2017-12-19T23:52:12.799Z,23.60
2017-12-19T23:54:41.091Z,20.30
2017-12-19T23:57:09.468Z,15.37
2017-12-19T23:59:37.799Z,12.70
